createdAt,value
2023-05-10T00:00:24.860Z,57.19
2023-05-10T00:02:51.994Z,59.22
2023-05-10T00:05:19.068Z,62.96
2023-05-10T00:07:46.295Z,65.31
2023-05-10T00:10:13.251Z,64.46
2023-05-10T00:12:40.437Z,65.45
2023-05-10T00:15:08.169Z,64.81
2023-05-10T00:17:35.077Z,68.15
2023-05-10T00:20:02.038Z,65.33
2023-05-10T00:22:28.976Z,63.71
2023-05-10T00:24:55.819Z,64.55
2023-05-10T00:27:22.660Z,65.68
2023-05-10T00:29:49.515Z,67.40
2023-05-10T00:32:16.751Z,70.55
2023-05-10T00:34:43.797Z,68.79
2023-05-10T00:37:10.664Z,66.66
2023-05-10T00:39:37.487Z,65.27
2023-05-10T00:42:05.626Z,64.01
2023-05-10T00:44:32.446Z,61.88
2023-05-10T00:47:00.030Z,58.29
2023-05-10T00:49:27.156Z,55.47
2023-05-10T00:51:54.349Z,53.17
2023-05-10T00:54:21.734Z,53.73
2023-05-10T00:56:50.290Z,53.90
2023-05-10T00:59:18.908Z,54.25
2023-05-10T01:01:48.756Z,53.90
2023-05-10T01:04:16.085Z,55.62
2023-05-10T01:06:43.454Z,58.35
2023-05-10T01:09:10.988Z,65.55
2023-05-10T01:11:39.815Z,83.10
2023-05-10T01:14:07.444Z,73.92
2023-05-10T01:16:39.723Z,80.96
2023-05-10T01:19:08.450Z,84.29
2023-05-10T01:21:58.243Z,81.68
2023-05-10T01:24:30.589Z,78.65
2023-05-10T01:27:28.730Z,77.47
2023-05-10T01:30:15.636Z,75.13
2023-05-10T01:33:01.009Z,68.86
2023-05-10T01:35:57.651Z,67.63
2023-05-10T01:38:42.103Z,67.61
2023-05-10T01:41:14.774Z,65.26
2023-05-10T01:43:51.270Z,64.46
2023-05-10T01:46:31.764Z,68.54
2023-05-10T01:49:00.477Z,70.24
2023-05-10T01:51:32.684Z,69.68
2023-05-10T01:54:02.844Z,68.72
2023-05-10T01:56:32.111Z,68.30
2023-05-10T01:59:00.061Z,70.54
2023-05-10T02:01:28.143Z,70.74
2023-05-10T02:03:56.475Z,71.76
2023-05-10T02:06:23.623Z,72.04
2023-05-10T02:08:51.550Z,70.00
2023-05-10T02:11:19.180Z,69.30
2023-05-10T02:13:48.404Z,67.36
2023-05-10T02:16:16.150Z,66.66
2023-05-10T02:18:43.386Z,64.78
2023-05-10T02:21:11.741Z,63.98
2023-05-10T02:23:38.783Z,63.31
2023-05-10T02:26:06.975Z,60.84
2023-05-10T02:28:34.426Z,63.92
2023-05-10T02:31:01.733Z,65.18
2023-05-10T02:33:28.837Z,65.16
2023-05-10T02:35:56.117Z,66.44
2023-05-10T02:38:23.393Z,65.86
2023-05-10T02:40:50.320Z,66.39
2023-05-10T02:43:19.149Z,64.38
2023-05-10T02:45:48.556Z,64.96
2023-05-10T02:48:15.714Z,67.60
2023-05-10T02:50:45.599Z,66.12
2023-05-10T02:53:17.583Z,63.72
2023-05-10T02:55:47.669Z,63.14
2023-05-10T02:58:14.569Z,65.37
2023-05-10T03:00:41.416Z,66.86
2023-05-10T03:03:08.841Z,68.76
2023-05-10T03:05:35.685Z,70.14
2023-05-10T03:08:05.271Z,73.74
2023-05-10T03:10:33.379Z,76.81
2023-05-10T03:13:18.560Z,75.14
2023-05-10T03:16:10.314Z,78.81
2023-05-10T03:18:45.661Z,86.01
2023-05-10T03:21:13.648Z,80.54
2023-05-10T03:23:43.479Z,80.56
2023-05-10T03:26:10.429Z,80.65
2023-05-10T03:28:38.048Z,80.60
2023-05-10T03:31:06.846Z,76.55
2023-05-10T03:33:33.746Z,77.56
2023-05-10T03:36:00.596Z,75.81
2023-05-10T03:38:29.699Z,74.40
2023-05-10T03:40:57.320Z,76.42
2023-05-10T03:43:24.153Z,78.32
2023-05-10T03:45:50.842Z,83.34
2023-05-10T03:48:17.706Z,77.67
2023-05-10T03:50:44.611Z,74.56
2023-05-10T03:53:11.419Z,75.70
2023-05-10T03:55:38.077Z,75.86
2023-05-10T03:58:04.939Z,74.93
2023-05-10T04:00:32.129Z,72.53
2023-05-10T04:02:59.029Z,71.76
2023-05-10T04:05:25.947Z,69.63
2023-05-10T04:07:52.816Z,72.87
2023-05-10T04:10:19.815Z,68.61
2023-05-10T04:12:46.793Z,70.33
2023-05-10T04:15:13.678Z,71.85
2023-05-10T04:17:40.759Z,75.09
2023-05-10T04:20:08.456Z,75.59
2023-05-10T04:22:35.318Z,75.29
2023-05-10T04:25:02.131Z,79.25
2023-05-10T04:27:28.797Z,76.63
2023-05-10T04:29:55.621Z,73.15
2023-05-10T04:32:22.297Z,75.89
2023-05-10T04:34:49.156Z,75.60
2023-05-10T04:37:16.153Z,78.69
2023-05-10T04:39:43.035Z,75.99
2023-05-10T04:42:10.181Z,80.12
2023-05-10T04:44:37.484Z,79.78
2023-05-10T04:47:04.471Z,80.21
2023-05-10T04:49:31.393Z,80.21
2023-05-10T04:51:58.217Z,77.86
2023-05-10T04:54:24.913Z,81.41
2023-05-10T04:56:51.836Z,80.48
2023-05-10T04:59:18.671Z,79.23
2023-05-10T05:01:45.326Z,79.10
2023-05-10T05:04:12.550Z,80.84
2023-05-10T05:06:39.456Z,82.04
2023-05-10T05:09:06.310Z,82.83
2023-05-10T05:11:33.216Z,75.79
2023-05-10T05:14:00.703Z,69.45
2023-05-10T05:16:27.738Z,67.81
2023-05-10T05:18:54.683Z,65.19
2023-05-10T05:21:22.465Z,62.82
2023-05-10T05:23:49.353Z,61.06
2023-05-10T05:26:16.292Z,59.58
2023-05-10T05:28:43.273Z,61.31
2023-05-10T05:31:10.290Z,62.84
2023-05-10T05:33:37.638Z,60.84
2023-05-10T05:36:07.625Z,64.73
2023-05-10T05:38:34.479Z,61.51
2023-05-10T05:41:01.577Z,62.31
2023-05-10T05:43:28.462Z,60.42
2023-05-10T05:45:55.567Z,55.17
2023-05-10T05:48:22.441Z,54.80
2023-05-10T05:50:49.311Z,56.36
2023-05-10T05:53:16.901Z,54.56
2023-05-10T05:56:01.821Z,54.52
2023-05-10T05:58:29.116Z,56.25
2023-05-10T06:00:55.973Z,55.74
2023-05-10T06:03:22.852Z,53.52
2023-05-10T06:05:49.942Z,52.73
2023-05-10T06:08:16.856Z,56.08
2023-05-10T06:10:43.771Z,54.40
2023-05-10T06:13:11.071Z,53.82
2023-05-10T06:15:38.096Z,52.91
2023-05-10T06:18:05.415Z,54.85
2023-05-10T06:20:32.746Z,55.36
2023-05-10T06:22:59.854Z,53.31
2023-05-10T06:25:26.853Z,56.25
2023-05-10T06:27:58.428Z,57.02
2023-05-10T06:30:29.824Z,56.71
2023-05-10T06:32:57.486Z,58.67
2023-05-10T06:35:24.530Z,57.05
2023-05-10T06:37:52.104Z,59.26
2023-05-10T06:40:19.405Z,59.82
2023-05-10T06:42:47.476Z,60.62
2023-05-10T06:45:15.877Z,58.65
2023-05-10T06:47:43.155Z,59.03
2023-05-10T06:50:10.836Z,57.96
2023-05-10T06:52:37.822Z,58.67
2023-05-10T06:55:05.901Z,59.81
2023-05-10T06:57:33.119Z,60.72
2023-05-10T07:00:00.422Z,61.72
2023-05-10T07:02:27.751Z,59.73
2023-05-10T07:04:55.351Z,59.44
2023-05-10T07:07:22.385Z,60.14
2023-05-10T07:09:52.307Z,57.21
2023-05-10T07:12:19.234Z,55.85
2023-05-10T07:14:46.515Z,55.81
2023-05-10T07:17:13.431Z,60.07
2023-05-10T07:19:40.341Z,59.39
2023-05-10T07:22:10.003Z,57.47
2023-05-10T07:24:37.505Z,61.47
2023-05-10T07:27:05.427Z,59.43
2023-05-10T07:29:32.409Z,60.26
2023-05-10T07:31:59.369Z,57.01
2023-05-10T07:34:26.625Z,55.86
2023-05-10T07:36:53.831Z,56.17
2023-05-10T07:39:27.502Z,56.59
2023-05-10T07:41:55.960Z,55.69
2023-05-10T07:44:22.972Z,56.05
2023-05-10T07:46:49.977Z,53.25
2023-05-10T07:49:17.328Z,53.46
2023-05-10T07:51:44.446Z,53.53
2023-05-10T07:54:11.379Z,53.65
2023-05-10T07:56:38.257Z,54.54
2023-05-10T07:59:07.362Z,53.85
2023-05-10T08:01:35.455Z,52.82
2023-05-10T08:04:03.123Z,51.40
2023-05-10T08:06:31.430Z,51.07
2023-05-10T08:08:59.989Z,50.78
2023-05-10T08:11:28.811Z,52.33
2023-05-10T08:13:55.927Z,54.16
2023-05-10T08:16:23.259Z,52.91
2023-05-10T08:18:52.000Z,53.33
2023-05-10T08:21:19.069Z,53.94
2023-05-10T08:23:46.227Z,53.93
2023-05-10T08:26:13.202Z,54.38
2023-05-10T08:28:40.077Z,54.09
2023-05-10T08:31:07.129Z,53.86
2023-05-10T08:33:34.270Z,52.02
2023-05-10T08:36:01.140Z,52.06
2023-05-10T08:38:28.268Z,50.24
2023-05-10T08:40:58.107Z,53.18
2023-05-10T08:43:28.588Z,53.16
2023-05-10T08:45:57.101Z,52.50
2023-05-10T08:48:25.954Z,53.94
2023-05-10T08:50:58.683Z,54.85
2023-05-10T08:53:27.799Z,55.43
2023-05-10T08:55:54.806Z,55.85
2023-05-10T08:58:21.699Z,53.21
2023-05-10T09:00:52.623Z,53.84
2023-05-10T09:03:19.793Z,53.92
2023-05-10T09:05:47.078Z,52.21
2023-05-10T09:08:16.874Z,51.39
2023-05-10T09:10:46.155Z,52.13
2023-05-10T09:13:13.792Z,53.38
2023-05-10T09:15:40.738Z,52.89
2023-05-10T09:18:07.665Z,54.54
2023-05-10T09:20:34.552Z,51.96
2023-05-10T09:23:01.416Z,49.86
2023-05-10T09:25:28.359Z,52.67
2023-05-10T09:27:56.281Z,52.59
2023-05-10T09:30:26.860Z,50.73
2023-05-10T09:32:54.463Z,50.93
2023-05-10T09:35:25.440Z,53.68
2023-05-10T09:37:55.394Z,53.34
2023-05-10T09:40:26.543Z,50.64
2023-05-10T09:43:01.780Z,51.26
2023-05-10T09:45:30.693Z,52.41
2023-05-10T09:47:58.013Z,50.10
2023-05-10T09:50:25.160Z,49.01
2023-05-10T09:52:59.504Z,50.03
2023-05-10T09:55:42.513Z,51.54
2023-05-10T09:58:17.723Z,50.46
2023-05-10T10:00:46.363Z,50.10
2023-05-10T10:03:17.885Z,49.58
2023-05-10T10:05:45.708Z,49.37
2023-05-10T10:08:13.465Z,50.04
2023-05-10T10:10:47.648Z,49.18
2023-05-10T10:13:15.905Z,48.88
2023-05-10T10:15:44.133Z,47.58
2023-05-10T10:18:32.000Z,48.48
2023-05-10T10:20:59.224Z,49.27
2023-05-10T10:23:26.433Z,51.03
2023-05-10T10:25:55.337Z,52.38
2023-05-10T10:28:54.833Z,49.38
2023-05-10T10:31:40.342Z,47.71
2023-05-10T10:34:15.146Z,49.37
2023-05-10T10:36:46.916Z,50.26
2023-05-10T10:39:31.121Z,49.12
2023-05-10T10:41:58.905Z,49.46
2023-05-10T10:44:33.226Z,46.77
2023-05-10T10:47:09.631Z,43.87
2023-05-10T10:55:50.125Z,44.11
2023-05-10T10:58:33.306Z,43.41
2023-05-10T11:01:20.831Z,44.23
2023-05-10T11:03:59.753Z,42.48
2023-05-10T11:06:33.699Z,42.33
2023-05-10T11:09:06.522Z,41.64
2023-05-10T11:11:33.443Z,41.61
2023-05-10T11:14:05.166Z,42.81
2023-05-10T11:16:43.594Z,44.91
2023-05-10T11:19:48.844Z,42.93
2023-05-10T11:22:15.989Z,44.05
2023-05-10T11:24:57.976Z,41.77
2023-05-10T11:27:24.920Z,40.86
2023-05-10T11:29:54.929Z,40.62
2023-05-10T11:32:22.085Z,39.30
2023-05-10T11:34:49.528Z,42.53
2023-05-10T11:37:16.388Z,41.52
2023-05-10T11:39:50.528Z,41.94
2023-05-10T11:42:17.411Z,40.79
2023-05-10T11:44:46.967Z,39.54
2023-05-10T11:47:13.877Z,39.40
2023-05-10T11:49:45.039Z,39.63
2023-05-10T11:52:14.940Z,41.67
2023-05-10T11:54:55.512Z,42.03
2023-05-10T11:57:28.058Z,40.35
2023-05-10T11:59:56.230Z,41.02
2023-05-10T12:02:23.176Z,41.07
2023-05-10T12:04:51.107Z,40.11
2023-05-10T12:07:18.381Z,40.34
2023-05-10T12:09:46.331Z,38.99
2023-05-10T12:12:19.426Z,37.67
2023-05-10T12:14:50.496Z,37.31
2023-05-10T12:17:17.611Z,39.15
2023-05-10T12:19:44.974Z,39.35
2023-05-10T12:22:11.865Z,39.62
2023-05-10T12:24:41.692Z,40.44
2023-05-10T12:27:13.429Z,41.54
2023-05-10T12:29:44.923Z,41.39
2023-05-10T12:32:12.148Z,40.61
2023-05-10T12:34:39.711Z,41.74
2023-05-10T12:37:06.676Z,40.31
2023-05-10T12:39:44.884Z,41.22
2023-05-10T12:42:11.983Z,41.64
2023-05-10T12:44:38.908Z,42.62
2023-05-10T12:47:06.192Z,41.87
2023-05-10T12:49:33.329Z,40.74
2023-05-10T12:52:00.233Z,39.69
2023-05-10T12:54:27.185Z,40.02
2023-05-10T12:56:54.070Z,40.46
2023-05-10T12:59:20.941Z,40.00
2023-05-10T13:01:47.884Z,38.63
2023-05-10T13:04:14.831Z,39.33
2023-05-10T13:06:42.028Z,38.40
2023-05-10T13:09:08.952Z,37.74
2023-05-10T13:11:35.880Z,37.75
2023-05-10T13:14:04.373Z,39.90
2023-05-10T13:16:32.460Z,36.16
2023-05-10T13:18:59.723Z,35.70
2023-05-10T13:21:26.926Z,37.14
2023-05-10T13:23:54.695Z,36.71
2023-05-10T13:26:21.543Z,37.93
2023-05-10T13:28:49.982Z,37.32
2023-05-10T13:31:17.044Z,37.55
2023-05-10T13:33:44.053Z,37.47
2023-05-10T13:36:10.992Z,39.00
2023-05-10T13:38:38.547Z,38.47
2023-05-10T13:41:05.723Z,38.01
2023-05-10T13:43:32.757Z,35.45
2023-05-10T13:45:59.697Z,36.88
2023-05-10T13:48:26.597Z,36.95
2023-05-10T13:50:53.512Z,36.69
2023-05-10T13:53:20.512Z,37.63
2023-05-10T13:55:47.416Z,38.14
2023-05-10T13:58:14.368Z,38.59
2023-05-10T14:00:41.423Z,38.61
2023-05-10T14:03:10.310Z,37.97
2023-05-10T14:05:37.435Z,38.49
2023-05-10T14:08:05.394Z,39.26
2023-05-10T14:10:32.291Z,39.20
2023-05-10T14:12:59.172Z,38.44
2023-05-10T14:15:28.083Z,40.25
2023-05-10T14:17:55.143Z,38.21
2023-05-10T14:20:22.058Z,38.40
2023-05-10T14:22:49.039Z,38.47
2023-05-10T14:25:16.396Z,38.15
2023-05-10T14:27:43.456Z,37.17
2023-05-10T14:30:11.961Z,37.93
2023-05-10T14:32:39.049Z,38.18
2023-05-10T14:35:07.324Z,37.19
2023-05-10T14:37:34.492Z,37.06
2023-05-10T14:40:01.568Z,36.93
2023-05-10T14:42:29.564Z,37.35
2023-05-10T14:44:56.463Z,37.58
2023-05-10T14:47:23.423Z,38.60
2023-05-10T14:49:50.392Z,38.86
2023-05-10T14:52:17.732Z,38.86
2023-05-10T14:54:44.658Z,39.05
2023-05-10T14:57:11.507Z,38.54
2023-05-10T14:59:38.372Z,39.01
2023-05-10T15:02:05.628Z,40.94
2023-05-10T15:04:33.356Z,41.27
2023-05-10T15:07:01.045Z,39.21
2023-05-10T15:09:28.876Z,39.98
2023-05-10T15:11:56.348Z,38.44
2023-05-10T15:14:23.931Z,39.49
2023-05-10T15:16:50.831Z,40.15
2023-05-10T15:19:17.739Z,40.11
2023-05-10T15:21:45.690Z,39.45
2023-05-10T15:24:12.619Z,39.23
2023-05-10T15:26:39.569Z,40.11
2023-05-10T15:29:06.403Z,38.52
2023-05-10T15:31:36.190Z,38.57
2023-05-10T15:34:03.195Z,39.00
2023-05-10T15:36:30.059Z,38.87
2023-05-10T15:38:57.015Z,39.04
2023-05-10T15:41:24.807Z,38.81
2023-05-10T15:43:51.771Z,40.23
2023-05-10T15:46:18.696Z,39.89
2023-05-10T15:48:45.600Z,38.35
2023-05-10T15:51:12.542Z,37.91
2023-05-10T15:53:46.668Z,38.46
2023-05-10T15:56:19.920Z,39.98
2023-05-10T15:58:46.977Z,39.73
2023-05-10T16:01:13.962Z,40.15
2023-05-10T16:03:40.897Z,39.56
2023-05-10T16:06:08.160Z,40.79
2023-05-10T16:08:35.508Z,40.33
2023-05-10T16:11:02.530Z,39.90
2023-05-10T16:13:29.630Z,41.41
2023-05-10T16:15:57.957Z,42.34
2023-05-10T16:18:25.071Z,41.65
2023-05-10T16:20:52.375Z,41.92
2023-05-10T16:23:19.592Z,40.59
2023-05-10T16:25:46.650Z,41.13
2023-05-10T16:28:13.504Z,41.20
2023-05-10T16:30:40.726Z,41.29
2023-05-10T16:33:07.597Z,40.95
2023-05-10T16:35:34.437Z,41.71
2023-05-10T16:38:01.285Z,40.80
2023-05-10T16:40:28.177Z,42.31
2023-05-10T16:42:55.023Z,41.29
2023-05-10T16:45:21.945Z,41.34
2023-05-10T16:47:49.003Z,41.17
2023-05-10T16:50:15.904Z,40.83
2023-05-10T16:52:42.792Z,41.38
2023-05-10T16:55:09.902Z,40.62
2023-05-10T16:57:36.924Z,42.54
2023-05-10T17:00:05.250Z,42.60
2023-05-10T17:02:32.336Z,42.59
2023-05-10T17:04:59.258Z,42.66
2023-05-10T17:07:26.574Z,41.97
2023-05-10T17:09:53.424Z,41.79
2023-05-10T17:12:20.358Z,41.93
2023-05-10T17:14:47.493Z,42.50
2023-05-10T17:17:14.436Z,43.71
2023-05-10T17:19:45.001Z,44.58
2023-05-10T17:22:13.469Z,44.39
2023-05-10T17:24:40.389Z,43.31
2023-05-10T17:27:07.263Z,43.44
2023-05-10T17:29:34.167Z,43.43
2023-05-10T17:32:01.188Z,44.20
2023-05-10T17:34:28.245Z,43.47
2023-05-10T17:36:55.695Z,44.95
2023-05-10T17:39:22.671Z,45.64
2023-05-10T17:41:49.513Z,45.05
2023-05-10T17:44:16.426Z,44.82
2023-05-10T17:46:43.677Z,44.92
2023-05-10T17:49:10.646Z,44.95
2023-05-10T17:51:37.560Z,44.04
2023-05-10T17:54:04.505Z,43.70
2023-05-10T17:56:31.352Z,43.93
2023-05-10T17:58:58.236Z,44.48
2023-05-10T18:01:25.157Z,44.62
2023-05-10T18:03:53.001Z,45.12
2023-05-10T18:06:20.092Z,45.48
2023-05-10T18:08:46.961Z,45.45
2023-05-10T18:11:13.948Z,44.96
2023-05-10T18:13:41.078Z,45.09
2023-05-10T18:16:09.003Z,45.23
2023-05-10T18:18:43.096Z,45.80
2023-05-10T18:21:10.074Z,45.69
2023-05-10T18:23:37.352Z,45.38
2023-05-10T18:26:04.427Z,45.38
2023-05-10T18:28:31.300Z,46.20
2023-05-10T18:30:58.360Z,47.16
2023-05-10T18:33:25.323Z,47.42
2023-05-10T18:35:52.234Z,47.88
2023-05-10T18:38:19.671Z,46.51
2023-05-10T18:40:46.582Z,46.27
2023-05-10T18:43:13.436Z,46.35
2023-05-10T18:45:40.320Z,46.18
2023-05-10T18:48:08.034Z,45.77
2023-05-10T18:50:35.014Z,45.57
2023-05-10T18:53:02.287Z,44.57
2023-05-10T18:55:29.991Z,46.90
2023-05-10T18:57:56.905Z,46.84
2023-05-10T19:00:24.102Z,46.66
2023-05-10T19:02:51.162Z,46.42
2023-05-10T19:05:18.542Z,47.43
2023-05-10T19:07:45.767Z,47.64
2023-05-10T19:10:13.729Z,47.12
2023-05-10T19:12:43.207Z,48.37
2023-05-10T19:15:10.694Z,48.69
2023-05-10T19:17:40.840Z,46.86
2023-05-10T19:20:09.532Z,46.65
2023-05-10T19:22:54.316Z,47.50
2023-05-10T19:25:29.707Z,48.21
2023-05-10T19:27:59.814Z,46.16
2023-05-10T19:30:26.896Z,47.28
2023-05-10T19:32:55.521Z,46.91
2023-05-10T19:35:23.610Z,47.93
2023-05-10T19:37:51.064Z,47.81
2023-05-10T19:40:18.745Z,48.38
2023-05-10T19:42:45.697Z,49.48
2023-05-10T19:45:12.648Z,48.61
2023-05-10T19:47:39.577Z,47.99
2023-05-10T19:50:07.627Z,46.23
2023-05-10T19:52:34.634Z,46.29
2023-05-10T19:55:01.571Z,46.99
2023-05-10T19:57:28.420Z,45.97
2023-05-10T19:59:55.319Z,46.93
2023-05-10T20:02:22.210Z,46.04
2023-05-10T20:04:49.168Z,44.67
2023-05-10T20:07:16.268Z,45.72
2023-05-10T20:09:44.382Z,45.08
2023-05-10T20:12:11.244Z,45.74
2023-05-10T20:14:38.166Z,45.37
2023-05-10T20:17:05.310Z,44.71
2023-05-10T20:19:32.413Z,44.75
2023-05-10T20:21:59.338Z,45.03
2023-05-10T20:24:26.195Z,45.68
2023-05-10T20:26:53.063Z,44.16
2023-05-10T20:29:19.977Z,45.04
2023-05-10T20:31:46.897Z,45.12
2023-05-10T20:34:13.882Z,44.55
2023-05-10T20:36:40.711Z,45.76
2023-05-10T20:39:07.576Z,45.23
2023-05-10T20:41:34.389Z,47.25
2023-05-10T20:44:01.200Z,46.96
2023-05-10T20:46:28.249Z,47.85
2023-05-10T20:48:55.167Z,46.10
2023-05-10T20:51:22.005Z,45.15
2023-05-10T20:53:48.834Z,46.56
2023-05-10T20:56:15.765Z,47.27
2023-05-10T20:58:42.617Z,46.95
2023-05-10T21:01:09.563Z,46.17
2023-05-10T21:03:36.441Z,45.93
2023-05-10T21:06:03.348Z,46.62
2023-05-10T21:08:30.175Z,45.69
2023-05-10T21:10:57.082Z,47.14
2023-05-10T21:13:23.950Z,49.64
2023-05-10T21:15:50.938Z,47.55
2023-05-10T21:18:17.860Z,48.91
2023-05-10T21:20:44.776Z,46.67
2023-05-10T21:23:11.629Z,47.67
2023-05-10T21:25:38.824Z,47.71
2023-05-10T21:28:05.725Z,45.55
2023-05-10T21:30:33.642Z,47.32
2023-05-10T21:33:01.914Z,50.25
2023-05-10T21:35:30.102Z,51.30
2023-05-10T21:37:57.457Z,50.68
2023-05-10T21:40:24.387Z,51.23
2023-05-10T21:42:51.305Z,52.91
2023-05-10T21:45:19.867Z,52.46
2023-05-10T21:47:46.803Z,52.42
2023-05-10T21:50:13.742Z,51.31
2023-05-10T21:52:40.564Z,53.58
2023-05-10T21:55:08.786Z,55.12
2023-05-10T21:57:36.760Z,54.96
2023-05-10T22:00:03.886Z,53.88
2023-05-10T22:02:30.908Z,55.15
2023-05-10T22:04:58.135Z,55.14
2023-05-10T22:07:25.091Z,55.93
2023-05-10T22:09:51.905Z,53.75
2023-05-10T22:12:18.741Z,54.29
2023-05-10T22:14:45.987Z,56.80
2023-05-10T22:17:12.950Z,55.32
2023-05-10T22:19:39.851Z,53.59
2023-05-10T22:22:06.726Z,50.15
2023-05-10T22:24:33.563Z,52.32
2023-05-10T22:27:01.111Z,49.93
2023-05-10T22:29:28.369Z,51.78
2023-05-10T22:31:55.308Z,52.00
2023-05-10T22:34:22.198Z,54.21
2023-05-10T22:36:50.554Z,55.86
2023-05-10T22:39:17.767Z,53.30
2023-05-10T22:41:44.640Z,55.47
2023-05-10T22:44:11.512Z,54.06
2023-05-10T22:46:38.503Z,55.56
2023-05-10T22:49:06.382Z,54.09
2023-05-10T22:51:33.395Z,52.49
2023-05-10T22:54:00.240Z,54.13
2023-05-10T22:56:27.616Z,51.17
2023-05-10T22:58:54.961Z,51.41
2023-05-10T23:01:21.829Z,54.96
2023-05-10T23:03:48.721Z,54.09
2023-05-10T23:06:15.555Z,53.86
2023-05-10T23:08:42.446Z,52.10
2023-05-10T23:11:09.345Z,52.98
2023-05-10T23:13:36.247Z,53.29
2023-05-10T23:16:06.973Z,51.34
2023-05-10T23:18:34.181Z,50.90
2023-05-10T23:21:01.162Z,49.87
2023-05-10T23:23:28.007Z,53.39
2023-05-10T23:25:54.967Z,53.35
2023-05-10T23:28:21.814Z,51.65
2023-05-10T23:30:55.754Z,53.43
2023-05-10T23:33:23.420Z,52.29
2023-05-10T23:35:50.317Z,53.15
2023-05-10T23:38:17.342Z,54.64
2023-05-10T23:40:48.220Z,54.42
2023-05-10T23:43:16.329Z,57.36
2023-05-10T23:45:43.428Z,52.22
2023-05-10T23:48:10.358Z,50.47
2023-05-10T23:50:37.328Z,56.09
2023-05-10T23:53:04.155Z,50.49
2023-05-10T23:55:31.037Z,52.72
2023-05-10T23:57:57.848Z,52.85
